ドーハ の空港の天気 - METARとTAF

ドーハ国際空港 ( OTBD / DOH ) - カタール ドーハ
飛行場実況気象(Metar)
観測時間07/22 03:00 AST (07/22 00:00 UTC)
風向・風速北北東 3m/s
視程10km以上
天気現象
なし
気温33℃
湿度71%
気圧996hPa
METAROTBD 220000Z 02005KT CAVOK 33/27 Q0996 NOSIG
過去の天気等 Google飛行場航空写真 Wunderground天気予報

過去48時間のMETAR

飛行場予報(TAF)
発表時間: 7/22 01:50 AST (7/21 22:50 UTC)
予報対象時間: 22日3時 AST ~ 23日9時 AST
風向・風速不定 1m/s
視程8,000m
なし
22日3時 AST ~ 22日7時 AST に 確率 30% で一時的に
視程5,000m
天気現象煙霧
22日11時 AST ~ 22日13時 AST に徐々に
風向・風速東南東 4m/s
22日20時 AST ~ 22日22時 AST に徐々に
風向・風速不定 1m/s
22日23時 AST ~ 23日7時 AST に一時的に
視程5,000m
天気現象煙霧
23日3時 AST ~ 23日7時 AST に 確率 30% で一時的に
視程3,000m
天気現象もや
TAF OTBD 212250Z 2200/2306 VRB02KT 8000 NSC
PROB30 TEMPO 2200/2204 5000 HZ
BECMG 2208/2210 11008KT
BECMG 2217/2219 VRB02KT
TEMPO 2220/2304 5000 HZ
PROB30 TEMPO 2300/2304 3000 BR